Heat Index [SAI AWOS/ASOS Display]_________FAA Disclaimer: "Not for use in aviation at this time______________" Untitled Document
Potsdam Municipal/ Damon Field (PTD)
000
06:36
17/07/27
00
N/A
N/A
29.96
N/A
47403/26
63(F), 17(C)
63(F), 17(C)
63 F
100%
SCT035 OVC045
10
N/A
N/A
N/A
06:36 Zulu Wind Calm, Altimeter 29.96
METAR KPTD 270636Z AUTO 00000KT 10SM SCT035 OVC045 17/17 A2996 A02
METAR:
FAA Disclaimer--Advisory Use ONLY, not for flight info-- 1/17/2017: Current fuel prices are $4.34 per gallon for 100LL, and $3.55 per gallon for Jet A. AWOS phone 315-265-6106 updated 09/18/2014
INFO:
Wind Direction:
Wind Speed:
Wind Gust:
Wind Variable:
Altimeter:
Dens Alt:
Elev:
Temp:
Dwpt:
Wind Chill
Rel Humidity:
Ceiling:
Visibility:
Prsnt Wea:
PCPN:
Remarks:
How to read the WebPage